Time;durP1;ratioP1;P1;durP2;ratioP2;P2;SDS_P1;SDS_P2;PMS_P1;PMS_P2;Temp;Humidity;BMP_temperature;BMP_pressure;BME280_temperature;BME280_humidity;BME280_pressure;Samples;Min_cycle;Max_cycle;Signal;HPM_P1;HPM_P2
2023/10/11 00:01:58;;;;;;;14.27;5.15;;;18.00;99.90;;;;;;5053732;28;20384;-70
2023/10/11 00:04:24;;;;;;;8.68;4.53;;;18.00;99.90;;;;;;5052676;28;20013;-70
2023/10/11 00:06:51;;;;;;;10.25;4.40;;;18.00;99.90;;;;;;5051337;28;20032;-71
2023/10/11 00:09:16;;;;;;;10.90;5.22;;;18.00;99.90;;;;;;5052719;28;20020;-70
2023/10/11 00:11:42;;;;;;;10.25;4.95;;;17.90;99.90;;;;;;5053309;28;20029;-70
2023/10/11 00:14:08;;;;;;;7.97;4.60;;;17.90;99.90;;;;;;5051298;28;20398;-70
2023/10/11 00:16:35;;;;;;;8.30;4.45;;;17.90;99.90;;;;;;5053459;28;20025;-71
2023/10/11 00:19:01;;;;;;;9.68;4.75;;;17.90;99.90;;;;;;5052605;28;20513;-70
2023/10/11 00:24:23;;;;;;;11.10;4.97;;;17.90;99.90;;;;;;5052056;28;20029;-70
2023/10/11 00:26:50;;;;;;;11.95;4.88;;;17.80;99.90;;;;;;5051860;28;20029;-70
2023/10/11 00:29:16;;;;;;;11.68;4.43;;;17.80;99.90;;;;;;5051069;28;20057;-70
2023/10/11 00:31:42;;;;;;;11.27;4.65;;;17.80;99.90;;;;;;5053053;28;20021;-70
2023/10/11 00:34:10;;;;;;;11.82;5.22;;;17.80;99.90;;;;;;5052258;28;20055;-71
2023/10/11 00:36:36;;;;;;;7.60;4.32;;;17.80;99.90;;;;;;5052802;28;20033;-70
2023/10/11 00:39:05;;;;;;;8.00;4.63;;;17.70;99.90;;;;;;5052135;28;20052;-70
2023/10/11 00:41:31;;;;;;;9.45;4.97;;;17.80;99.90;;;;;;5051511;28;20028;-70
2023/10/11 00:43:57;;;;;;;8.55;4.60;;;17.70;99.90;;;;;;5050819;28;20029;-70
2023/10/11 00:46:44;;;;;;;10.00;5.10;;;17.70;99.90;;;;;;5052838;28;20116;-70
2023/10/11 00:49:13;;;;;;;10.00;4.70;;;17.70;99.90;;;;;;5052086;28;20037;-70
2023/10/11 00:51:45;;;;;;;9.07;3.92;;;17.70;99.90;;;;;;5052697;28;20017;-70
2023/10/11 00:54:15;;;;;;;7.97;4.50;;;17.70;99.90;;;;;;5052092;28;20036;-70
2023/10/11 00:56:43;;;;;;;8.25;4.65;;;17.70;99.90;;;;;;5052580;28;20028;-71
2023/10/11 00:59:12;;;;;;;10.45;4.97;;;17.70;99.90;;;;;;5050451;28;20025;-70
2023/10/11 01:01:38;;;;;;;8.98;4.38;;;17.70;99.90;;;;;;5052393;28;20513;-70
2023/10/11 01:04:06;;;;;;;7.18;4.20;;;17.70;99.90;;;;;;5051937;28;20032;-71
2023/10/11 01:06:34;;;;;;;12.88;4.93;;;17.70;99.90;;;;;;5052369;28;20480;-70
2023/10/11 01:09:04;;;;;;;8.52;4.93;;;17.70;99.90;;;;;;5051579;28;20017;-70
2023/10/11 01:11:29;;;;;;;9.23;4.45;;;17.70;99.90;;;;;;5051062;28;20475;-70
2023/10/11 01:13:55;;;;;;;8.20;4.53;;;17.70;99.90;;;;;;5050365;28;20029;-70
2023/10/11 01:16:28;;;;;;;9.00;4.15;;;17.60;99.90;;;;;;5051961;28;20040;-70
2023/10/11 01:18:54;;;;;;;11.73;5.07;;;17.60;99.90;;;;;;5050121;28;20025;-70
2023/10/11 01:21:20;;;;;;;8.18;4.40;;;17.60;99.90;;;;;;5052294;28;20033;-70
2023/10/11 01:23:46;;;;;;;9.13;4.57;;;17.60;99.90;;;;;;5051428;28;20032;-70
2023/10/11 01:26:12;;;;;;;10.77;4.60;;;17.60;99.90;;;;;;5052065;28;20172;-70
2023/10/11 01:28:41;;;;;;;10.43;4.75;;;17.60;99.90;;;;;;5050106;28;20495;-70
2023/10/11 01:31:10;;;;;;;7.47;4.70;;;17.60;99.90;;;;;;5051894;28;20143;-70
2023/10/11 01:33:37;;;;;;;8.93;5.00;;;17.60;99.90;;;;;;5051499;28;20024;-70
2023/10/11 01:36:10;;;;;;;9.98;4.70;;;17.70;99.90;;;;;;5050751;28;20123;-71
2023/10/11 01:38:46;;;;;;;8.10;4.32;;;17.60;99.90;;;;;;5051394;28;20025;-71
2023/10/11 01:41:26;;;;;;;10.57;4.60;;;17.60;99.90;;;;;;5050572;28;20376;-70
2023/10/11 01:43:53;;;;;;;7.63;4.40;;;17.60;99.90;;;;;;5051188;28;20017;-70
2023/10/11 01:46:27;;;;;;;10.18;5.28;;;17.60;99.90;;;;;;5051982;28;20035;-70
2023/10/11 01:48:54;;;;;;;7.90;4.80;;;17.60;99.90;;;;;;5050997;28;20043;-70
2023/10/11 01:51:29;;;;;;;11.10;4.78;;;17.60;99.90;;;;;;5050605;28;20016;-70
2023/10/11 01:53:57;;;;;;;8.65;4.82;;;17.60;99.90;;;;;;5049710;28;20028;-70
2023/10/11 01:56:25;;;;;;;15.05;5.60;;;17.60;99.90;;;;;;5051884;28;20075;-70
2023/10/11 01:58:52;;;;;;;9.98;4.80;;;17.60;99.90;;;;;;5049743;28;20013;-70
2023/10/11 02:01:22;;;;;;;10.05;4.90;;;17.60;99.90;;;;;;5050400;28;20018;-70
2023/10/11 02:03:59;;;;;;;9.88;4.80;;;17.50;99.90;;;;;;5051131;28;20017;-70
2023/10/11 02:06:26;;;;;;;8.23;4.55;;;17.50;99.90;;;;;;5050617;28;20017;-70
2023/10/11 02:08:52;;;;;;;8.55;4.85;;;17.50;99.90;;;;;;5050930;28;20549;-70
2023/10/11 02:11:23;;;;;;;11.73;5.35;;;17.50;99.90;;;;;;5050300;28;20030;-70
2023/10/11 02:13:50;;;;;;;11.10;4.78;;;17.50;99.90;;;;;;5051011;28;20056;-70
2023/10/11 02:16:16;;;;;;;8.45;4.70;;;17.50;99.90;;;;;;5050194;28;20017;-70
2023/10/11 02:18:48;;;;;;;9.13;4.90;;;17.50;99.90;;;;;;5050832;28;20028;-70
2023/10/11 02:21:17;;;;;;;12.18;5.13;;;17.50;99.90;;;;;;5051369;28;20029;-70
2023/10/11 02:23:43;;;;;;;9.18;5.10;;;17.50;99.90;;;;;;5050915;28;20020;-70
2023/10/11 02:26:12;;;;;;;10.57;5.20;;;17.50;99.90;;;;;;5051596;28;20025;-70
2023/10/11 02:28:43;;;;;;;10.95;4.70;;;17.40;99.90;;;;;;5050805;28;20041;-71
2023/10/11 02:31:13;;;;;;;9.80;4.72;;;17.40;99.90;;;;;;5055214;28;20048;-70
2023/10/11 02:33:39;;;;;;;10.60;5.63;;;17.40;99.90;;;;;;5053268;28;20365;-71
2023/10/11 02:36:08;;;;;;;7.85;4.22;;;17.40;99.90;;;;;;5055391;28;20020;-70
2023/10/11 02:38:39;;;;;;;9.85;5.22;;;17.40;99.90;;;;;;5054454;28;20103;-70
2023/10/11 02:41:07;;;;;;;7.78;4.63;;;17.40;99.90;;;;;;5055101;28;20096;-71
2023/10/11 02:43:33;;;;;;;10.80;4.45;;;17.30;99.90;;;;;;5054332;28;20021;-71
2023/10/11 02:45:59;;;;;;;11.15;4.95;;;17.30;99.90;;;;;;5053638;28;20021;-71
2023/10/11 02:48:27;;;;;;;10.82;4.68;;;17.30;99.90;;;;;;5054390;28;20037;-70
2023/10/11 02:50:56;;;;;;;9.70;5.20;;;17.20;99.90;;;;;;5054922;28;20072;-71
2023/10/11 02:53:21;;;;;;;10.38;5.30;;;17.30;99.90;;;;;;5054437;28;20028;-70
2023/10/11 02:55:57;;;;;;;7.93;4.93;;;17.20;99.90;;;;;;5054708;28;20049;-70
2023/10/11 02:58:29;;;;;;;8.05;4.97;;;17.20;99.90;;;;;;5054444;28;20025;-70
2023/10/11 03:01:14;;;;;;;7.13;4.30;;;17.20;99.90;;;;;;5054494;28;20033;-71
2023/10/11 03:03:40;;;;;;;8.30;4.88;;;17.10;99.90;;;;;;5054014;28;20031;-70
2023/10/11 03:06:07;;;;;;;10.80;5.00;;;17.10;99.90;;;;;;5054711;28;20014;-70
2023/10/11 03:08:33;;;;;;;11.80;5.10;;;17.10;99.90;;;;;;5054305;28;20037;-70
2023/10/11 03:10:59;;;;;;;11.55;5.25;;;17.00;99.90;;;;;;5054466;28;20487;-70
2023/10/11 03:13:29;;;;;;;14.88;5.78;;;17.00;99.90;;;;;;5054146;28;20086;-71
2023/10/11 03:15:59;;;;;;;8.70;5.05;;;17.00;99.90;;;;;;5053078;28;20031;-71
2023/10/11 03:18:32;;;;;;;10.30;5.40;;;16.90;99.90;;;;;;5054011;28;20061;-70
2023/10/11 03:21:08;;;;;;;10.07;4.97;;;16.90;99.90;;;;;;5052930;28;20031;-70
2023/10/11 03:23:43;;;;;;;6.78;4.80;;;16.90;99.90;;;;;;5053983;28;20104;-70
2023/10/11 03:26:31;;;;;;;8.80;5.10;;;16.80;99.90;;;;;;5053143;28;20029;-70
2023/10/11 03:29:04;;;;;;;9.48;4.80;;;16.80;99.90;;;;;;5053642;28;20022;-70
2023/10/11 03:31:34;;;;;;;8.60;4.97;;;16.80;99.90;;;;;;5052896;28;20033;-70
2023/10/11 03:34:10;;;;;;;;;;;16.80;99.90;;;;;;5053965;28;20099;-70
2023/10/11 03:36:43;;;;;;;12.30;5.50;;;16.80;99.90;;;;;;5053966;28;19928;-70
2023/10/11 03:39:15;;;;;;;8.63;5.38;;;16.70;99.90;;;;;;5053613;28;20028;-70
2023/10/11 03:41:47;;;;;;;8.98;5.30;;;16.70;99.90;;;;;;5053751;28;20021;-70
2023/10/11 03:44:17;;;;;;;9.32;5.25;;;16.60;99.90;;;;;;5052004;28;20296;-70
2023/10/11 03:46:47;;;;;;;10.73;5.57;;;16.60;99.90;;;;;;5053969;28;20025;-70
2023/10/11 03:51:48;;;;;;;14.30;6.03;;;16.60;99.90;;;;;;5053844;28;20033;-71
2023/10/11 03:54:22;;;;;;;10.10;5.68;;;16.60;99.90;;;;;;5053081;28;20044;-71
2023/10/11 03:56:53;;;;;;;9.15;5.63;;;16.60;99.90;;;;;;5053744;28;20017;-70
2023/10/11 03:59:25;;;;;;;10.15;5.32;;;16.50;99.90;;;;;;5053037;28;20062;-70
2023/10/11 04:02:00;;;;;;;10.95;5.88;;;16.60;99.90;;;;;;5053565;28;20031;-70
2023/10/11 04:04:27;;;;;;;11.13;5.50;;;16.50;99.90;;;;;;5052854;28;20467;-71
2023/10/11 04:07:01;;;;;;;10.23;5.38;;;16.60;99.90;;;;;;5053628;28;20537;-71
2023/10/11 04:12:00;;;;;;;10.55;5.45;;;16.50;99.90;;;;;;5053416;28;20406;-70
2023/10/11 04:19:51;;;;;;;10.98;5.68;;;16.50;99.90;;;;;;5052862;28;20071;-70
2023/10/11 04:22:18;;;;;;;9.98;4.90;;;16.50;99.90;;;;;;5053271;28;20028;-70
2023/10/11 04:24:45;;;;;;;11.48;5.90;;;16.50;99.90;;;;;;5052456;28;20045;-71
2023/10/11 04:29:47;;;;;;;9.85;5.47;;;16.40;99.90;;;;;;5052626;28;20053;-70
2023/10/11 04:32:40;;;;;;;10.23;5.55;;;16.50;99.90;;;;;;5053062;28;20471;-71
2023/10/11 04:34:59;;;;;;;11.27;6.75;;;16.50;99.90;;;;;;5052660;28;20495;-70
2023/10/11 04:37:27;;;;;;;14.93;5.85;;;16.40;99.90;;;;;;5053206;28;20028;-70
2023/10/11 04:40:14;;;;;;;11.35;6.63;;;16.50;99.90;;;;;;5052347;28;20025;-71
2023/10/11 04:42:41;;;;;;;13.60;6.22;;;16.40;99.90;;;;;;5051578;28;20025;-70
2023/10/11 04:45:09;;;;;;;11.65;6.28;;;16.50;99.90;;;;;;5052111;28;20029;-71
2023/10/11 04:47:51;;;;;;;11.70;6.03;;;16.40;99.90;;;;;;5052693;28;20511;-71
2023/10/11 04:50:17;;;;;;;9.50;5.72;;;16.40;99.90;;;;;;5050709;28;20126;-70
2023/10/11 04:52:48;;;;;;;11.75;6.03;;;16.40;99.90;;;;;;5052028;28;20067;-70
2023/10/11 04:55:15;;;;;;;10.85;6.10;;;16.40;99.90;;;;;;5051867;28;20376;-70
2023/10/11 04:58:03;;;;;;;12.13;5.55;;;16.40;99.90;;;;;;5052602;28;20017;-70
2023/10/11 05:00:31;;;;;;;12.73;7.28;;;16.40;99.90;;;;;;5051891;28;20495;-71
2023/10/11 05:03:02;;;;;;;14.30;6.10;;;16.40;99.90;;;;;;5051320;28;20043;-70
2023/10/11 05:05:30;;;;;;;14.38;6.43;;;16.40;99.90;;;;;;5051885;28;20025;-70
2023/10/11 05:08:05;;;;;;;11.80;5.80;;;16.40;99.90;;;;;;5052333;28;20021;-70
2023/10/11 05:10:43;;;;;;;13.02;6.20;;;16.40;99.90;;;;;;5050374;28;20028;-70
2023/10/11 05:13:13;;;;;;;10.02;5.80;;;16.30;99.90;;;;;;5052333;28;20048;-71
2023/10/11 05:15:47;;;;;;;12.75;6.18;;;16.30;99.90;;;;;;5051909;28;20036;-71
2023/10/11 05:18:18;;;;;;;9.38;6.22;;;16.30;99.90;;;;;;5052289;28;20029;-70
2023/10/11 05:20:57;;;;;;;13.02;6.22;;;16.30;99.90;;;;;;5051602;28;20028;-71
2023/10/11 05:23:25;;;;;;;9.45;5.57;;;16.20;99.90;;;;;;5052453;28;20025;-70
2023/10/11 05:25:58;;;;;;;12.52;6.53;;;16.20;99.90;;;;;;5050081;28;20031;-71
2023/10/11 05:28:27;;;;;;;9.40;5.30;;;16.20;99.90;;;;;;5052060;28;20029;-70
2023/10/11 05:36:48;;;;;;;12.32;6.47;;;16.20;99.90;;;;;;5051738;28;20098;-70
2023/10/11 05:52:55;;;;;;;10.48;5.95;;;16.20;99.90;;;;;;5051945;28;20052;-70
2023/10/11 05:55:22;;;;;;;10.32;5.90;;;16.20;99.90;;;;;;5050990;28;20391;-70
2023/10/11 05:57:49;;;;;;;11.13;6.35;;;16.20;99.90;;;;;;5050417;28;20021;-70
2023/10/11 06:00:23;;;;;;;13.55;6.63;;;16.20;99.90;;;;;;5051043;28;20021;-71
2023/10/11 06:02:52;;;;;;;13.30;7.47;;;16.20;99.90;;;;;;5051693;28;20025;-71
2023/10/11 06:05:24;;;;;;;12.32;6.93;;;16.20;99.90;;;;;;5055258;28;20021;-70
2023/10/11 06:08:00;;;;;;;12.05;6.32;;;16.20;99.90;;;;;;5056072;28;20037;-72
2023/10/11 06:10:29;;;;;;;11.15;6.50;;;16.20;99.90;;;;;;5055092;28;20029;-71
2023/10/11 06:12:58;;;;;;;11.23;6.80;;;16.30;99.90;;;;;;5055700;28;20479;-71
2023/10/11 06:15:24;;;;;;;12.00;6.50;;;16.20;99.90;;;;;;5054957;28;20376;-71
2023/10/11 06:17:49;;;;;;;11.07;6.18;;;16.20;99.90;;;;;;5055557;28;20036;-71
2023/10/11 06:20:27;;;;;;;14.38;6.93;;;16.20;99.90;;;;;;5054993;28;20520;-71
2023/10/11 06:22:56;;;;;;;14.73;7.80;;;16.20;99.90;;;;;;5055489;28;20032;-71
2023/10/11 06:25:23;;;;;;;13.93;6.43;;;16.20;99.90;;;;;;5054824;28;20045;-71
2023/10/11 06:30:24;;;;;;;14.38;6.20;;;16.30;99.90;;;;;;5054661;28;20082;-71
2023/10/11 06:32:50;;;;;;;12.90;7.40;;;16.30;99.90;;;;;;5054129;28;20028;-71
2023/10/11 06:35:23;;;;;;;10.90;6.85;;;16.30;99.90;;;;;;5053376;28;20055;-71
2023/10/11 06:37:53;;;;;;;13.05;7.30;;;16.30;99.90;;;;;;5054014;28;20025;-71
2023/10/11 06:40:47;;;;;;;12.40;7.05;;;16.30;99.90;;;;;;5054456;28;20017;-71
2023/10/11 06:43:13;;;;;;;12.50;6.70;;;16.40;99.90;;;;;;5055109;28;20029;-71
2023/10/11 06:45:42;;;;;;;17.05;7.63;;;16.40;99.90;;;;;;5054390;28;20035;-71
2023/10/11 06:48:09;;;;;;;15.73;7.22;;;16.40;99.90;;;;;;5054927;28;20028;-70
2023/10/11 06:50:36;;;;;;;13.82;6.65;;;16.40;99.90;;;;;;5052751;28;20068;-72
2023/10/11 06:53:07;;;;;;;13.25;7.07;;;16.40;99.90;;;;;;5054850;28;20032;-71
2023/10/11 06:55:47;;;;;;;11.20;6.82;;;16.50;99.90;;;;;;5054174;28;20028;-71
2023/10/11 06:58:19;;;;;;;11.85;7.60;;;16.50;99.90;;;;;;5054934;28;20032;-71
2023/10/11 07:00:53;;;;;;;13.43;7.60;;;16.50;99.90;;;;;;5054213;28;20028;-71
2023/10/11 07:05:56;;;;;;;14.20;8.18;;;16.60;99.90;;;;;;5053975;28;20028;-71
2023/10/11 07:08:31;;;;;;;12.88;7.40;;;16.60;99.90;;;;;;5054789;28;20365;-71
2023/10/11 07:13:57;;;;;;;11.00;7.18;;;16.70;99.90;;;;;;5054602;28;20056;-71
2023/10/11 07:16:28;;;;;;;14.63;7.80;;;16.70;99.90;;;;;;5052255;28;20039;-71
2023/10/11 07:18:54;;;;;;;;;;;16.70;99.90;;;;;;5055012;28;20027;-71
2023/10/11 07:24:19;;;;;;;17.55;8.93;;;16.70;99.90;;;;;;5053903;28;20037;-71
2023/10/11 07:29:13;;;;;;;13.75;7.45;;;16.70;99.90;;;;;;5054019;28;20090;-71
2023/10/11 07:31:49;;;;;;;13.90;7.55;;;16.80;99.90;;;;;;5054022;28;20032;-71
2023/10/11 07:34:22;;;;;;;15.15;7.90;;;16.80;99.90;;;;;;5052462;28;20314;-71
2023/10/11 07:36:49;;;;;;;15.27;8.90;;;16.80;99.90;;;;;;5053739;28;20029;-71
2023/10/11 07:39:19;;;;;;;15.32;8.30;;;16.80;99.90;;;;;;5053495;28;20451;-71
2023/10/11 07:41:47;;;;;;;13.27;8.18;;;16.80;99.90;;;;;;5053837;28;20553;-71
2023/10/11 07:44:13;;;;;;;15.52;8.30;;;16.80;99.90;;;;;;5053544;28;20029;-71
2023/10/11 07:46:39;;;;;;;13.70;8.25;;;16.80;99.90;;;;;;5052404;28;20025;-71
2023/10/11 07:49:05;;;;;;;15.07;8.95;;;16.80;99.90;;;;;;5053490;28;20055;-71
2023/10/11 07:51:36;;;;;;;12.25;8.25;;;16.90;99.90;;;;;;5053462;28;20021;-71
2023/10/11 07:54:06;;;;;;;14.35;8.45;;;16.90;99.90;;;;;;5053547;28;20017;-71
2023/10/11 07:56:35;;;;;;;14.02;8.45;;;16.90;99.90;;;;;;5053345;28;20021;-71
2023/10/11 07:59:07;;;;;;;12.82;8.38;;;17.00;99.90;;;;;;5053546;28;20023;-71
2023/10/11 08:01:42;;;;;;;15.07;8.40;;;17.00;99.90;;;;;;5053333;28;20665;-71
2023/10/11 08:04:18;;;;;;;17.77;9.23;;;17.00;99.90;;;;;;5053364;28;20043;-71
2023/10/11 08:06:46;;;;;;;18.10;9.57;;;17.00;99.90;;;;;;5053391;28;20386;-71
2023/10/11 08:09:25;;;;;;;15.32;9.20;;;17.00;99.90;;;;;;5053119;28;20475;-71
2023/10/11 08:11:56;;;;;;;14.82;8.35;;;17.10;99.90;;;;;;5053371;28;20067;-71
2023/10/11 08:14:28;;;;;;;14.95;8.45;;;17.10;99.90;;;;;;5052921;28;20031;-71
2023/10/11 08:16:56;;;;;;;17.55;9.48;;;17.10;99.90;;;;;;5053262;28;20107;-71
2023/10/11 08:19:22;;;;;;;18.00;9.30;;;17.10;99.90;;;;;;5052983;28;20029;-71
2023/10/11 08:21:57;;;;;;;18.23;9.85;;;17.10;99.90;;;;;;5053133;28;20025;-71
2023/10/11 08:24:27;;;;;;;18.10;9.57;;;17.20;99.90;;;;;;5052816;28;20036;-71
2023/10/11 08:26:57;;;;;;;15.20;9.63;;;17.20;99.90;;;;;;5050508;28;20384;-71
2023/10/11 08:29:29;;;;;;;16.77;10.00;;;17.30;99.90;;;;;;5052807;28;20021;-71
2023/10/11 08:31:57;;;;;;;17.98;9.75;;;17.30;99.90;;;;;;5053021;28;20032;-71
2023/10/11 08:34:27;;;;;;;18.70;9.52;;;17.40;99.90;;;;;;5052692;28;20016;-71
2023/10/11 08:36:54;;;;;;;16.27;10.43;;;17.50;99.90;;;;;;5052798;28;20017;-71
2023/10/11 08:39:44;;;;;;;17.83;10.10;;;17.60;99.90;;;;;;5052540;28;20111;-71
2023/10/11 08:42:19;;;;;;;14.65;9.38;;;17.70;99.90;;;;;;5052922;28;20031;-71
2023/10/11 08:44:45;;;;;;;19.60;10.40;;;17.70;99.90;;;;;;5050864;28;20029;-71
2023/10/11 08:47:19;;;;;;;17.92;10.35;;;17.70;99.90;;;;;;5052782;28;20028;-71
2023/10/11 08:49:51;;;;;;;17.17;11.10;;;17.70;99.90;;;;;;5051808;28;20084;-72
2023/10/11 08:52:29;;;;;;;19.33;11.27;;;17.70;99.90;;;;;;5052615;28;20091;-71
2023/10/11 08:54:55;;;;;;;14.90;9.82;;;17.70;99.90;;;;;;5052141;28;20035;-72
2023/10/11 08:57:26;;;;;;;19.13;12.43;;;17.70;99.90;;;;;;5052564;28;20025;-71
2023/10/11 08:59:56;;;;;;;18.30;12.05;;;17.70;99.90;;;;;;5051948;28;20029;-71
2023/10/11 09:02:27;;;;;;;18.02;11.57;;;17.70;99.90;;;;;;5052477;28;20047;-71
2023/10/11 09:05:02;;;;;;;17.25;12.25;;;17.70;99.90;;;;;;5052072;28;20025;-71
2023/10/11 09:07:45;;;;;;;17.77;12.68;;;17.70;99.90;;;;;;5052601;28;20048;-71
2023/10/11 09:10:30;;;;;;;18.20;11.98;;;17.70;99.90;;;;;;5051853;28;20021;-71
2023/10/11 09:12:57;;;;;;;24.92;11.95;;;17.70;99.90;;;;;;5052290;28;20029;-71
2023/10/11 09:15:44;;;;;;;23.52;13.20;;;17.70;99.90;;;;;;5050421;28;20113;-72
2023/10/11 09:18:17;;;;;;;20.58;13.60;;;17.70;99.90;;;;;;5052368;28;20033;-72
2023/10/11 09:21:09;;;;;;;18.35;11.90;;;17.70;99.90;;;;;;5051693;28;20086;-71
2023/10/11 09:23:37;;;;;;;21.00;12.52;;;17.70;99.90;;;;;;5052195;28;20068;-72
2023/10/11 09:26:05;;;;;;;18.83;12.45;;;17.70;99.90;;;;;;5050143;28;20090;-71
2023/10/11 09:28:34;;;;;;;21.15;14.45;;;17.70;99.90;;;;;;5052293;28;20044;-72
2023/10/11 09:31:14;;;;;;;17.85;12.95;;;17.70;99.90;;;;;;5051548;28;20043;-72
2023/10/11 09:33:53;;;;;;;22.52;14.30;;;17.70;99.90;;;;;;5052201;28;20017;-72
2023/10/11 09:36:21;;;;;;;25.17;15.40;;;17.70;99.90;;;;;;5050079;28;20483;-74
2023/10/11 09:38:55;;;;;;;27.17;14.80;;;17.80;99.90;;;;;;5051870;28;20031;-74
2023/10/11 09:41:28;;;;;;;20.10;13.98;;;17.70;99.90;;;;;;5051614;28;20032;-73
2023/10/11 09:43:57;;;;;;;27.90;13.65;;;17.80;99.90;;;;;;5051864;28;20487;-75
2023/10/11 09:46:30;;;;;;;23.67;14.40;;;17.80;99.90;;;;;;5050010;28;20028;-74
2023/10/11 09:49:01;;;;;;;23.58;15.65;;;17.80;99.90;;;;;;5051567;28;20025;-73
2023/10/11 09:51:27;;;;;;;24.73;14.80;;;17.80;99.90;;;;;;5051245;28;20499;-72
2023/10/11 09:53:53;;;;;;;27.08;15.73;;;17.90;99.90;;;;;;5051659;28;20823;-72
2023/10/11 09:56:48;;;;;;;22.27;14.00;;;17.80;99.90;;;;;;5051056;28;20021;-72
2023/10/11 09:59:22;;;;;;;29.20;17.73;;;17.90;99.90;;;;;;5051972;28;20052;-72
2023/10/11 10:02:16;;;;;;;25.27;14.98;;;17.80;99.90;;;;;;5051083;28;20028;-72
2023/10/11 10:04:51;;;;;;;22.13;13.45;;;17.80;99.90;;;;;;5051310;28;20029;-72
2023/10/11 10:07:42;;;;;;;20.33;13.50;;;17.90;99.90;;;;;;5051428;28;20023;-72
2023/10/11 10:10:25;;;;;;;22.05;14.60;;;17.90;99.90;;;;;;5050688;28;20040;-72
2023/10/11 10:13:09;;;;;;;18.67;12.63;;;17.90;99.90;;;;;;5051702;28;20450;-72
2023/10/11 10:15:47;;;;;;;21.95;15.00;;;17.90;99.90;;;;;;5049693;28;20029;-72
2023/10/11 10:18:21;;;;;;;21.48;14.10;;;17.90;99.90;;;;;;5051550;28;20103;-72
2023/10/11 10:20:59;;;;;;;25.98;16.55;;;18.00;99.90;;;;;;5050929;28;20040;-72
2023/10/11 10:23:29;;;;;;;28.35;15.90;;;17.90;99.90;;;;;;5050261;28;20116;-72
2023/10/11 10:26:06;;;;;;;22.42;14.82;;;17.90;99.90;;;;;;5050915;28;20059;-72
2023/10/11 10:28:34;;;;;;;26.30;15.50;;;17.90;99.90;;;;;;5050157;28;20029;-72
2023/10/11 10:31:04;;;;;;;29.35;16.67;;;18.00;99.90;;;;;;5049535;28;20021;-72
2023/10/11 10:33:35;;;;;;;23.65;15.13;;;18.00;99.90;;;;;;5050379;28;20449;-72
2023/10/11 10:36:20;;;;;;;;;;;18.00;99.90;;;;;;5050013;28;20021;-72
2023/10/11 10:39:01;;;;;;;26.48;15.77;;;18.00;99.90;;;;;;5050387;28;19927;-72
2023/10/11 10:41:37;;;;;;;28.42;16.20;;;18.00;99.90;;;;;;5049283;28;20056;-72
2023/10/11 10:44:06;;;;;;;24.35;15.32;;;18.00;99.90;;;;;;5051480;28;20026;-72
2023/10/11 10:46:32;;;;;;;25.48;15.85;;;18.10;99.90;;;;;;5050703;28;20028;-71
2023/10/11 10:48:58;;;;;;;26.73;16.70;;;18.10;99.90;;;;;;5051011;28;20052;-72
2023/10/11 10:51:27;;;;;;;23.38;13.90;;;18.10;99.90;;;;;;5053061;28;20021;-72
2023/10/11 10:53:53;;;;;;;27.48;16.48;;;18.10;99.90;;;;;;5054967;28;20599;-72
2023/10/11 10:56:26;;;;;;;25.63;17.30;;;18.10;99.90;;;;;;5054416;28;20082;-72
2023/10/11 10:59:25;;;;;;;28.90;16.35;;;18.20;99.90;;;;;;5054993;28;20025;-72
2023/10/11 11:01:52;;;;;;;24.02;15.05;;;18.20;99.90;;;;;;5052923;28;20056;-72
2023/10/11 11:04:24;;;;;;;29.02;16.50;;;18.20;99.90;;;;;;5054710;28;20522;-72
2023/10/11 11:06:52;;;;;;;21.33;14.27;;;18.20;99.90;;;;;;5054185;28;20087;-72
2023/10/11 11:09:19;;;;;;;27.50;17.55;;;18.20;99.90;;;;;;5053290;28;20116;-72
2023/10/11 11:11:50;;;;;;;28.00;15.07;;;18.20;99.90;;;;;;5052627;28;20022;-71
2023/10/11 11:14:19;;;;;;;22.88;15.02;;;18.20;99.90;;;;;;5054551;28;20067;-72
2023/10/11 11:16:57;;;;;;;23.77;16.45;;;18.20;99.90;;;;;;5053921;28;20082;-72
2023/10/11 11:19:26;;;;;;;27.00;15.70;;;18.20;99.90;;;;;;5054624;28;20033;-72
2023/10/11 11:22:19;;;;;;;25.13;15.27;;;18.30;99.90;;;;;;5053897;28;20028;-72
2023/10/11 11:24:52;;;;;;;25.55;14.57;;;18.30;99.90;;;;;;5054154;28;20021;-72
2023/10/11 11:27:30;;;;;;;28.17;16.45;;;18.30;99.90;;;;;;5054136;28;20028;-72
2023/10/11 11:30:04;;;;;;;23.02;14.35;;;18.30;99.90;;;;;;5052671;28;20028;-72
2023/10/11 11:32:37;;;;;;;23.33;12.70;;;18.40;99.90;;;;;;5054104;28;20018;-72
2023/10/11 11:35:09;;;;;;;20.23;12.48;;;18.40;99.90;;;;;;5052477;28;20506;-72
2023/10/11 11:37:39;;;;;;;25.05;13.13;;;18.50;99.90;;;;;;5054189;28;20179;-72
2023/10/11 11:40:24;;;;;;;19.92;11.88;;;18.60;99.90;;;;;;5052404;28;20029;-72
2023/10/11 11:42:50;;;;;;;18.83;11.85;;;18.70;99.90;;;;;;5054141;28;20020;-72
2023/10/11 11:45:17;;;;;;;19.73;11.18;;;18.80;99.90;;;;;;5053586;28;20558;-72
2023/10/11 11:47:56;;;;;;;19.98;11.40;;;18.90;99.90;;;;;;5053826;28;20017;-72
2023/10/11 11:50:30;;;;;;;21.58;9.88;;;19.00;99.90;;;;;;5053194;28;20049;-72
2023/10/11 11:52:57;;;;;;;18.20;9.55;;;19.00;99.90;;;;;;5054145;28;20025;-72
2023/10/11 11:55:23;;;;;;;17.92;9.65;;;19.00;99.90;;;;;;5053216;28;20087;-72
2023/10/11 11:57:50;;;;;;;16.85;9.30;;;19.10;99.90;;;;;;5053642;28;20467;-72
2023/10/11 12:02:55;;;;;;;16.15;9.30;;;19.10;99.90;;;;;;5053801;28;20036;-72
2023/10/11 12:05:21;;;;;;;15.83;9.13;;;19.10;99.90;;;;;;5053159;28;20090;-72
2023/10/11 12:07:51;;;;;;;14.05;9.05;;;19.20;99.90;;;;;;5051974;28;20710;-72
2023/10/11 12:10:25;;;;;;;18.42;9.98;;;19.20;99.90;;;;;;5051773;28;20440;-72
2023/10/11 12:12:51;;;;;;;19.33;10.15;;;19.20;99.90;;;;;;5053360;28;20025;-72
2023/10/11 12:15:18;;;;;;;16.23;8.52;;;19.20;99.90;;;;;;5053241;28;20021;-72
2023/10/11 12:17:53;;;;;;;16.73;8.98;;;19.20;99.90;;;;;;5051836;28;20513;-72
2023/10/11 12:20:22;;;;;;;14.80;9.00;;;19.30;99.90;;;;;;5053034;28;20021;-72
2023/10/11 12:22:50;;;;;;;16.98;9.25;;;19.30;99.90;;;;;;5052999;28;20479;-72
2023/10/11 12:25:24;;;;;;;16.40;8.95;;;19.30;99.90;;;;;;5052590;28;20036;-72
2023/10/11 12:27:51;;;;;;;19.02;9.77;;;19.30;99.90;;;;;;5053195;28;20081;-72
2023/10/11 12:30:19;;;;;;;14.38;7.05;;;19.30;99.90;;;;;;5052746;28;20025;-73
2023/10/11 12:32:49;;;;;;;17.33;9.45;;;19.30;99.90;;;;;;5053013;28;20167;-72
2023/10/11 12:35:15;;;;;;;17.40;9.07;;;19.30;99.90;;;;;;5052978;28;20029;-72
2023/10/11 12:37:41;;;;;;;15.10;9.88;;;19.30;99.90;;;;;;5051457;28;20036;-72
2023/10/11 12:40:21;;;;;;;14.15;9.35;;;19.30;99.90;;;;;;5052818;28;20025;-73
2023/10/11 12:42:48;;;;;;;15.25;9.05;;;19.30;99.90;;;;;;5051302;28;20112;-72
2023/10/11 12:45:16;;;;;;;19.40;11.60;;;19.30;99.90;;;;;;5052361;28;20057;-72
2023/10/11 12:47:42;;;;;;;17.80;10.50;;;19.30;99.90;;;;;;5051393;28;20020;-72
2023/10/11 12:50:08;;;;;;;16.77;10.60;;;19.20;99.90;;;;;;5052170;28;20052;-71
2023/10/11 12:52:37;;;;;;;20.80;11.20;;;19.20;99.90;;;;;;5052276;28;20108;-72
2023/10/11 12:55:06;;;;;;;20.92;11.15;;;19.20;99.90;;;;;;5052363;28;20027;-72
2023/10/11 12:57:32;;;;;;;18.80;11.43;;;19.20;99.90;;;;;;5052333;28;20028;-72
2023/10/11 12:59:58;;;;;;;19.52;12.98;;;19.20;99.90;;;;;;5051273;28;20115;-72
2023/10/11 13:02:30;;;;;;;19.83;12.90;;;19.20;99.90;;;;;;5052019;28;20100;-72
2023/10/11 13:04:59;;;;;;;19.83;13.18;;;19.20;99.90;;;;;;5052360;28;20027;-72
2023/10/11 13:07:29;;;;;;;23.23;14.38;;;19.10;99.90;;;;;;5051850;28;20047;-72
2023/10/11 13:10:02;;;;;;;24.20;14.60;;;19.10;99.90;;;;;;5051259;28;20475;-72
2023/10/11 13:12:29;;;;;;;22.02;14.57;;;19.10;99.90;;;;;;5051981;28;20025;-72
2023/10/11 13:14:55;;;;;;;23.80;14.85;;;19.10;99.90;;;;;;5052030;28;20048;-72
2023/10/11 13:17:20;;;;;;;23.70;14.65;;;19.10;99.90;;;;;;5051658;28;20056;-72
2023/10/11 13:19:46;;;;;;;23.08;15.27;;;19.10;99.90;;;;;;5052119;28;20027;-72
2023/10/11 13:22:12;;;;;;;23.60;17.08;;;19.10;99.90;;;;;;5051717;28;20021;-72
2023/10/11 13:24:38;;;;;;;24.05;15.77;;;19.10;99.90;;;;;;5052078;28;20036;-72
2023/10/11 13:27:07;;;;;;;26.20;16.02;;;19.10;99.90;;;;;;5050211;28;20052;-72
2023/10/11 13:29:34;;;;;;;21.80;15.32;;;19.10;99.90;;;;;;5052448;28;20021;-72
2023/10/11 13:31:59;;;;;;;22.65;16.10;;;19.10;99.90;;;;;;5051422;28;20025;-72
2023/10/11 13:34:28;;;;;;;22.70;15.70;;;19.10;99.90;;;;;;5052051;28;20025;-72
2023/10/11 13:36:58;;;;;;;25.13;16.95;;;19.10;99.90;;;;;;5050153;28;20059;-72
2023/10/11 13:39:28;;;;;;;25.75;15.30;;;19.10;99.90;;;;;;5052186;28;20036;-71
2023/10/11 13:42:21;;;;;;;23.45;15.88;;;19.10;99.90;;;;;;5051401;28;20067;-72
2023/10/11 13:44:46;;;;;;;27.60;17.27;;;19.10;99.90;;;;;;5051463;28;20029;-71
2023/10/11 13:47:11;;;;;;;24.77;17.20;;;19.20;99.90;;;;;;5051036;28;20047;-71